»·PEaware :: N3867W KMRY-KWVI

N3867W :: KMRY-KWVI

FLIGHT INFORMATION

Flight Status: Arrived
Operator: Privately registered:
United States
More flights under this callsign
Pilot: Hilton Head Flyers (3548)
Aircraft: PIPER PA-32 SARATOGA
(PA32)
More flights by this aircraft type
Origin: KMRY Monterey Peninsula
United States
Destination: KWVI Watsonville Mun
United States
More flights between these airports :: More routes between these airports
Route: +MRY4 CAATE
File this flight plan on PilotEdge
Remarks: STUDENT
Altitude:
(Current/Filed)
6,000ft
Speed:
(Current/Filed)
120kts
Departed: 10-Aug-18 01:34 PM
Arrived: 10-Aug-18 02:02 PM
Distance/Time
Traveled:
21nm/0:28
Distance/Time
To Go:
Arrived

Flight Plot

Page will automatically refresh every two minutes.

Flight plan parsing failed; only flown route is shown


Map Options




Map Legend


Flown Route
Filed Route
Departure Airport
Arrival Airport
Navaid (VOR, NDB)
Fix

Horizontal Profiles

Position Reports

Time Latitude Longitude Heading Altitude Ground
Speed
10-Aug-18 13:05 36.588806 -121.856967 0 165ft 0kts
10-Aug-18 13:06 36.588806 -121.856967 0 165ft 0kts
10-Aug-18 13:07 36.588806 -121.856967 0 165ft 0kts
10-Aug-18 13:08 36.588806 -121.856967 0 165ft 0kts
10-Aug-18 13:09 36.588806 -121.856967 0 165ft 0kts
10-Aug-18 13:10 36.588806 -121.856967 0 165ft 0kts
10-Aug-18 13:11 36.588806 -121.856967 0 165ft 0kts
10-Aug-18 13:12 36.588806 -121.856967 0 165ft 0kts
10-Aug-18 13:13 36.588806 -121.856967 0 165ft 0kts
10-Aug-18 13:14 36.588806 -121.856967 0 165ft 0kts
10-Aug-18 13:15 36.588806 -121.856967 0 165ft 0kts
10-Aug-18 13:16 36.588806 -121.856967 0 165ft 0kts
10-Aug-18 13:17 36.588806 -121.856967 0 165ft 0kts
10-Aug-18 13:18 36.588806 -121.856967 0 165ft 0kts
10-Aug-18 13:19 36.588806 -121.856967 0 165ft 0kts
10-Aug-18 13:20 36.588806 -121.856967 0 165ft 0kts
10-Aug-18 13:21 36.588806 -121.856967 0 165ft 0kts
10-Aug-18 13:22 36.588806 -121.856967 0 165ft 0kts
10-Aug-18 13:23 36.588806 -121.856967 0 165ft 0kts
10-Aug-18 13:24 36.588806 -121.856967 0 165ft 0kts
10-Aug-18 13:25 36.588806 -121.856967 0 165ft 0kts
10-Aug-18 13:26 36.588806 -121.856967 0 165ft 0kts
10-Aug-18 13:27 36.588806 -121.856967 0 165ft 0kts
10-Aug-18 13:28 36.589263 -121.856618 58 161ft 12kts
10-Aug-18 13:29 36.588769 -121.852161 113 173ft 12kts
10-Aug-18 13:30 36.587266 -121.847676 114 185ft 18kts
10-Aug-18 13:31 36.585404 -121.842581 113 220ft 13kts
10-Aug-18 13:32 36.583519 -121.837014 103 249ft 19kts
10-Aug-18 13:33 36.582848 -121.834866 91 238ft 0kts
10-Aug-18 13:34 36.583391 -121.833710 296 232ft 0kts
10-Aug-18 13:35 36.590181 -121.853623 295 898ft 95kts
10-Aug-18 13:36 36.607481 -121.875698 324 2292ft 87kts
10-Aug-18 13:37 36.632184 -121.888468 333 3491ft 92kts
10-Aug-18 13:38 36.655850 -121.902212 332 4624ft 99kts
10-Aug-18 13:39 36.679648 -121.918181 332 5804ft 92kts
10-Aug-18 13:40 36.706318 -121.938567 329 5711ft 123kts
10-Aug-18 13:41 36.733845 -121.960882 324 5329ft 115kts
10-Aug-18 13:42 36.744858 -121.998034 264 4556ft 126kts
10-Aug-18 13:43 36.744336 -122.040276 272 4005ft 121kts
10-Aug-18 13:44 36.744070 -122.081849 265 3491ft 117kts
10-Aug-18 13:45 36.744482 -122.121939 281 3087ft 109kts
10-Aug-18 13:46 36.767390 -122.129199 54 2932ft 112kts
10-Aug-18 13:47 36.782721 -122.096743 61 2970ft 104kts
10-Aug-18 13:48 36.803145 -122.070828 42 2918ft 109kts
10-Aug-18 13:49 36.807187 -122.042340 137 2931ft 92kts
10-Aug-18 13:50 36.789395 -122.021864 127 2847ft 80kts
10-Aug-18 13:51 36.777707 -122.002487 124 2918ft 84kts
10-Aug-18 13:52 36.761722 -121.973977 124 2974ft 89kts
10-Aug-18 13:53 36.750041 -121.946448 82 2918ft 92kts
10-Aug-18 13:54 36.763326 -121.927345 33 2948ft 89kts
10-Aug-18 13:55 36.785995 -121.904335 35 2898ft 95kts
10-Aug-18 13:56 36.804691 -121.893096 25 2893ft 94kts
10-Aug-18 13:57 36.827491 -121.874935 34 2526ft 99kts
10-Aug-18 13:58 36.852413 -121.856703 31 1932ft 80kts
10-Aug-18 13:59 36.868191 -121.843449 35 1572ft 82kts
10-Aug-18 14:00 36.887032 -121.827901 29 1172ft 85kts
10-Aug-18 14:01 36.906795 -121.812543 33 734ft 84kts
10-Aug-18 14:02 36.926936 -121.797491 31 200ft 82kts
10-Aug-18 14:03 36.936861 -121.789341 79 151ft 6kts

Navigation Log

Ident Type
Flight plan parsing failed, navigation log unavailable